Time;durP1;ratioP1;P1;durP2;ratioP2;P2;SDS_P1;SDS_P2;PMS_P1;PMS_P2;Temp;Humidity;BMP_temperature;BMP_pressure;BME280_temperature;BME280_humidity;BME280_pressure;Samples;Min_cycle;Max_cycle;Signal;HPM_P1;HPM_P2
2021/07/21 00:01:36;;;;;;;10.95;8.60;;;;;;;22.86;49.58;102321.66;4960262;28;20058;-74
2021/07/21 00:04:02;;;;;;;11.10;8.70;;;;;;;22.90;49.72;102323.41;4960431;28;20022;-74
2021/07/21 00:06:27;;;;;;;12.88;9.23;;;;;;;22.90;49.57;102323.41;4976943;28;20042;-74
2021/07/21 00:08:53;;;;;;;11.90;8.65;;;;;;;22.91;49.76;102319.03;4959693;28;20030;-74
2021/07/21 00:14:09;;;;;;;12.60;8.48;;;;;;;22.90;49.79;102325.19;4977180;28;20046;-74
2021/07/21 00:16:37;;;;;;;11.23;8.63;;;;;;;22.90;49.73;102320.78;4959909;28;20074;-74
2021/07/21 00:21:52;;;;;;;13.05;9.32;;;;;;;22.90;49.82;102320.78;4977370;28;20042;-74
2021/07/21 00:24:18;;;;;;;14.50;9.65;;;;;;;22.90;49.89;102317.25;4960041;28;20417;-74
2021/07/21 00:26:44;;;;;;;10.52;8.55;;;;;;;22.89;49.85;102319.03;4976669;28;20094;-74
2021/07/21 00:29:10;;;;;;;9.27;7.30;;;;;;;22.88;49.86;102319.03;4976717;28;20069;-74
2021/07/21 00:31:35;;;;;;;10.07;8.23;;;;;;;22.86;49.99;102313.75;4976819;28;20034;-74
2021/07/21 00:34:01;;;;;;;10.85;8.32;;;;;;;22.89;49.98;102323.41;4959460;28;20042;-74
2021/07/21 00:36:28;;;;;;;11.45;8.27;;;;;;;22.87;50.25;102319.91;4976515;28;20018;-74
2021/07/21 00:38:53;;;;;;;9.75;7.82;;;;;;;22.88;49.98;102319.03;4956364;28;20516;-74
2021/07/21 00:41:18;;;;;;;10.18;8.27;;;;;;;22.87;49.96;102325.16;4976518;28;20046;-74
2021/07/21 00:43:44;;;;;;;11.68;8.57;;;;;;;22.89;50.04;102320.78;4976444;28;20027;-74
2021/07/21 00:46:09;;;;;;;9.98;7.88;;;;;;;22.85;49.96;102317.25;4976420;28;20457;-73
2021/07/21 00:48:35;;;;;;;11.43;8.52;;;;;;;22.86;50.04;102321.66;4959175;28;20121;-74
2021/07/21 00:51:01;;;;;;;10.13;8.55;;;;;;;22.87;50.08;102320.78;4959237;28;20038;-74
2021/07/21 00:53:27;;;;;;;10.85;8.60;;;;;;;22.83;50.24;102315.53;4975571;28;20031;-74
2021/07/21 00:55:52;;;;;;;9.25;7.97;;;;;;;22.88;49.99;102324.28;4959390;28;20105;-74
2021/07/21 00:58:18;;;;;;;11.30;8.30;;;;;;;22.89;50.14;102320.78;4975071;28;20428;-74
2021/07/21 01:00:43;;;;;;;10.02;7.85;;;;;;;22.88;50.19;102329.56;4975074;28;20470;-74
2021/07/21 01:03:09;;;;;;;10.93;8.57;;;;;;;22.89;50.14;102326.94;4974877;28;20030;-74
2021/07/21 01:05:41;;;;;;;9.93;8.40;;;;;;;22.82;50.28;102306.72;4976181;28;20432;-74
2021/07/21 01:08:08;;;;;;;10.37;7.93;;;;;;;22.87;50.28;102323.41;4977012;28;20027;-74
2021/07/21 01:10:34;;;;;;;11.23;8.65;;;;;;;22.86;50.28;102324.28;4976999;28;20062;-74
2021/07/21 01:13:02;;;;;;;9.82;7.78;;;;;;;22.89;50.31;102331.34;4975949;28;20027;-74
2021/07/21 01:15:41;;;;;;;11.90;8.80;;;;;;;22.86;50.38;102320.78;4977857;28;20037;-74
2021/07/21 01:18:13;;;;;;;9.18;7.55;;;;;;;22.85;50.34;102316.41;4977488;28;20117;-74
2021/07/21 01:20:50;;;;;;;10.73;8.18;;;;;;;22.88;50.50;102321.66;4977443;28;20039;-73
2021/07/21 01:23:40;;;;;;;10.40;8.27;;;;;;;22.89;50.50;102320.78;4984167;28;20041;-74
2021/07/21 01:26:11;;;;;;;9.45;8.10;;;;;;;22.86;50.37;102311.09;4981489;28;20023;-73
2021/07/21 01:28:41;;;;;;;10.60;9.00;;;;;;;22.85;50.55;102314.63;4975989;28;20035;-74
2021/07/21 01:31:12;;;;;;;10.65;7.93;;;;;;;22.87;50.41;102319.91;4976427;28;20026;-74
2021/07/21 01:33:42;;;;;;;10.63;7.53;;;;;;;22.84;50.64;102315.53;4974824;28;20026;-74
2021/07/21 01:36:11;;;;;;;10.68;8.00;;;;;;;22.84;50.76;102318.16;4975907;28;20109;-73
2021/07/21 01:38:40;;;;;;;11.75;7.55;;;;;;;22.85;50.72;102313.78;4974482;28;20051;-73
2021/07/21 01:41:23;;;;;;;8.65;6.82;;;;;;;22.86;50.58;102318.13;4975695;28;20035;-74
2021/07/21 01:43:51;;;;;;;10.02;8.00;;;;;;;22.85;50.71;102322.53;4975608;28;20129;-73
2021/07/21 01:46:25;;;;;;;9.70;7.88;;;;;;;22.84;50.64;102317.28;4975653;28;20121;-74
2021/07/21 01:48:53;;;;;;;10.85;7.57;;;;;;;22.87;50.67;102319.91;4975567;28;20374;-74
2021/07/21 01:51:22;;;;;;;10.00;7.65;;;;;;;22.79;50.80;102298.81;4975551;28;20504;-73
2021/07/21 01:53:48;;;;;;;10.27;7.70;;;;;;;22.85;50.71;102319.03;4974254;28;20026;-73
2021/07/21 01:56:14;;;;;;;8.97;7.53;;;;;;;22.82;50.92;102312.00;4974403;28;20018;-74
2021/07/21 01:58:41;;;;;;;10.13;8.05;;;;;;;22.86;50.86;102321.66;4974230;28;20089;-74
2021/07/21 02:01:10;;;;;;;9.60;7.35;;;;;;;22.84;50.76;102326.06;4973993;28;20042;-74
2021/07/21 02:03:39;;;;;;;10.07;7.70;;;;;;;22.85;50.85;102321.69;4975169;28;20033;-74
2021/07/21 02:06:06;;;;;;;;;;;;;;;22.86;50.82;102321.66;4974193;28;20031;-74
2021/07/21 02:08:33;;;;;;;10.10;8.80;;;;;;;22.84;50.76;102318.16;4974489;28;20035;-72
2021/07/21 02:11:01;;;;;;;11.15;8.15;;;;;;;22.85;50.93;102324.31;4958360;28;20089;-72
2021/07/21 02:13:28;;;;;;;11.00;8.10;;;;;;;22.85;50.98;102319.88;4975203;28;20022;-72
2021/07/21 02:15:54;;;;;;;11.98;8.52;;;;;;;22.85;51.02;102330.44;4957613;28;20031;-72
2021/07/21 02:18:20;;;;;;;10.52;8.15;;;;;;;22.85;51.01;102325.16;4975016;28;20058;-72
2021/07/21 02:20:47;;;;;;;9.48;7.20;;;;;;;22.86;51.07;102326.03;4975055;28;20389;-72
2021/07/21 02:23:18;;;;;;;10.70;7.28;;;;;;;22.82;51.06;102322.56;4974931;28;20461;-72
2021/07/21 02:25:44;;;;;;;10.15;8.27;;;;;;;22.82;51.12;102306.72;4975999;28;20035;-73
2021/07/21 02:28:10;;;;;;;11.32;7.43;;;;;;;22.84;51.15;102310.25;4975279;28;20477;-72
2021/07/21 02:30:36;;;;;;;8.55;7.30;;;;;;;22.83;51.12;102307.59;4973832;28;20030;-72
2021/07/21 02:33:08;;;;;;;9.70;7.70;;;;;;;22.85;51.09;102319.03;4974976;28;20098;-72
2021/07/21 02:35:35;;;;;;;9.75;7.53;;;;;;;22.84;51.05;102312.88;4974175;28;20158;-72
2021/07/21 02:38:00;;;;;;;10.73;7.90;;;;;;;22.81;51.17;102302.31;4973343;28;20051;-72
2021/07/21 02:40:26;;;;;;;8.75;7.40;;;;;;;22.82;51.21;102312.00;4974932;28;20041;-72
2021/07/21 02:42:52;;;;;;;9.17;6.83;;;;;;;22.85;51.28;102313.78;4974922;28;20478;-72
2021/07/21 02:45:18;;;;;;;8.52;6.80;;;;;;;22.80;51.36;102303.19;4974813;28;20027;-72
2021/07/21 02:47:44;;;;;;;8.43;6.85;;;;;;;22.83;51.35;102305.84;4974732;28;20034;-72
2021/07/21 02:50:15;;;;;;;8.40;6.78;;;;;;;22.80;51.27;102308.47;4974500;28;20038;-72
2021/07/21 02:53:09;;;;;;;9.63;7.75;;;;;;;22.83;51.43;102308.50;4973857;28;20389;-72
2021/07/21 02:55:48;;;;;;;10.88;8.00;;;;;;;22.82;51.49;102314.63;4974653;28;20023;-72
2021/07/21 02:58:53;;;;;;;9.18;7.15;;;;;;;22.82;51.44;102317.28;4973317;28;20022;-72
2021/07/21 03:01:21;;;;;;;11.65;7.45;;;;;;;22.80;51.32;102311.13;4973211;28;20486;-72
2021/07/21 03:03:49;;;;;;;10.30;7.18;;;;;;;22.80;51.39;102319.91;4974492;28;20109;-72
2021/07/21 03:06:16;;;;;;;10.52;8.25;;;;;;;22.80;51.43;102319.03;4974500;28;20524;-72
2021/07/21 03:08:43;;;;;;;10.88;8.75;;;;;;;22.79;51.39;102319.91;4974888;28;20469;-72
2021/07/21 03:11:10;;;;;;;;;;;;;;;22.80;51.37;102322.56;4974711;28;20589;-72
2021/07/21 03:13:43;;;;;;;9.57;7.20;;;;;;;22.80;51.46;102322.56;4973306;28;20311;-72
2021/07/21 03:16:09;;;;;;;9.98;7.75;;;;;;;22.79;51.49;102330.47;4974674;28;20058;-72
2021/07/21 03:18:36;;;;;;;9.48;6.75;;;;;;;22.80;51.46;102329.59;4973236;28;20122;-72
2021/07/21 03:21:02;;;;;;;8.30;7.13;;;;;;;22.76;51.55;102322.53;4974531;28;20034;-72
2021/07/21 03:23:29;;;;;;;11.63;7.38;;;;;;;22.75;51.38;102323.38;4974404;28;20054;-72
2021/07/21 03:25:59;;;;;;;10.07;8.23;;;;;;;22.78;51.46;102329.56;4957037;28;20031;-72
2021/07/21 03:28:25;;;;;;;7.60;6.50;;;;;;;22.78;51.59;102328.69;4974264;28;20026;-74
2021/07/21 03:30:53;;;;;;;9.95;7.72;;;;;;;22.78;51.31;102333.97;4973339;28;20026;-74
2021/07/21 03:33:20;;;;;;;9.00;7.57;;;;;;;22.76;51.62;102333.09;4974406;28;20098;-74
2021/07/21 03:35:47;;;;;;;9.70;7.18;;;;;;;22.77;51.70;102337.47;4974206;28;20106;-74
2021/07/21 03:38:16;;;;;;;9.65;7.65;;;;;;;22.75;51.61;102334.81;4972958;28;20580;-74
2021/07/21 03:40:42;;;;;;;9.05;7.07;;;;;;;22.77;51.57;102332.22;4972939;28;20243;-74
2021/07/21 03:43:08;;;;;;;11.32;8.10;;;;;;;22.78;51.56;102339.25;4974092;28;20039;-74
2021/07/21 03:45:34;;;;;;;10.00;7.55;;;;;;;22.71;51.48;102334.81;4972845;28;20034;-74
2021/07/21 03:48:01;;;;;;;9.95;7.68;;;;;;;22.73;51.63;102336.56;4974596;28;20076;-74
2021/07/21 03:50:26;;;;;;;10.43;7.95;;;;;;;22.73;51.64;102333.03;4960443;28;20031;-74
2021/07/21 03:52:53;;;;;;;10.35;7.78;;;;;;;22.76;51.59;102344.50;4977795;28;20023;-74
2021/07/21 03:55:21;;;;;;;10.60;8.25;;;;;;;22.76;51.46;102344.50;4976428;28;20035;-74
2021/07/21 03:57:47;;;;;;;9.30;6.95;;;;;;;22.76;51.49;102333.09;4976282;28;20093;-74
2021/07/21 04:00:16;;;;;;;13.25;7.72;;;;;;;22.74;51.68;102340.97;4977871;28;20031;-74
2021/07/21 04:02:45;;;;;;;10.80;7.88;;;;;;;22.76;51.62;102335.72;4978945;28;20026;-74
2021/07/21 04:05:14;;;;;;;8.85;7.43;;;;;;;22.76;51.64;102335.72;4979948;28;20019;-74
2021/07/21 04:07:41;;;;;;;10.77;7.72;;;;;;;22.71;51.82;102340.97;4978988;28;20027;-74
2021/07/21 04:10:07;;;;;;;10.10;7.93;;;;;;;22.74;51.73;102333.03;4979239;28;20441;-74
2021/07/21 04:12:34;;;;;;;9.30;8.10;;;;;;;22.74;51.65;102342.72;4947092;28;20030;-74
2021/07/21 04:15:01;;;;;;;8.35;7.47;;;;;;;22.76;51.62;102343.63;4979054;28;20085;-73
2021/07/21 04:17:32;;;;;;;9.23;8.00;;;;;;;22.75;51.68;102336.56;4980408;28;20027;-74
2021/07/21 04:20:00;;;;;;;9.15;7.15;;;;;;;22.74;51.72;102340.06;4980511;28;20389;-74
2021/07/21 04:22:26;;;;;;;8.65;7.40;;;;;;;22.74;51.75;102338.31;4980891;28;20045;-74
2021/07/21 04:24:52;;;;;;;8.48;7.15;;;;;;;22.75;51.64;102342.72;4979347;28;20466;-74
2021/07/21 04:27:17;;;;;;;8.88;7.07;;;;;;;22.74;51.77;102333.03;4979260;28;20133;-74
2021/07/21 04:29:46;;;;;;;9.73;7.95;;;;;;;22.76;51.68;102336.59;4963600;28;20474;-74
2021/07/21 04:32:13;;;;;;;10.02;8.48;;;;;;;22.75;51.65;102333.94;4979465;28;20042;-74
2021/07/21 04:34:40;;;;;;;9.07;7.25;;;;;;;22.76;51.72;102331.31;4963943;28;20121;-74
2021/07/21 04:37:06;;;;;;;9.88;8.27;;;;;;;22.76;51.86;102327.81;4980433;28;20373;-73
2021/07/21 04:39:32;;;;;;;9.05;7.00;;;;;;;22.77;51.66;102330.44;4979291;28;20057;-73
2021/07/21 04:41:58;;;;;;;11.32;8.00;;;;;;;22.81;51.82;102331.34;4978958;28;20035;-73
2021/07/21 04:44:23;;;;;;;9.10;7.22;;;;;;;22.83;51.79;102331.34;4979627;28;20065;-75
2021/07/21 04:46:49;;;;;;;11.85;9.43;;;;;;;22.83;51.76;102336.63;4962378;28;20035;-73
2021/07/21 04:49:20;;;;;;;8.25;7.10;;;;;;;22.86;51.71;102337.47;4978969;28;20077;-72
2021/07/21 04:51:48;;;;;;;9.13;7.75;;;;;;;22.85;51.65;102335.72;4979351;28;20487;-73
2021/07/21 04:54:13;;;;;;;9.73;8.70;;;;;;;22.88;51.79;102338.38;4980032;28;20038;-72
2021/07/21 04:56:39;;;;;;;8.95;7.88;;;;;;;22.89;51.76;102341.88;4979053;28;20389;-73
2021/07/21 04:59:05;;;;;;;11.20;8.50;;;;;;;22.89;51.82;102345.41;4977760;28;20504;-73
2021/07/21 05:01:33;;;;;;;10.50;8.50;;;;;;;22.89;51.91;102341.88;4979049;28;20548;-75
2021/07/21 05:03:59;;;;;;;9.38;7.95;;;;;;;22.92;51.87;102352.44;4976332;28;20484;-71
2021/07/21 05:06:24;;;;;;;9.90;7.68;;;;;;;22.90;51.90;102344.53;4978261;28;20066;-72
2021/07/21 05:08:51;;;;;;;10.48;8.45;;;;;;;22.91;51.77;102348.03;4978426;28;20026;-73
2021/07/21 05:11:17;;;;;;;8.88;7.40;;;;;;;22.91;51.96;102353.31;4978044;28;20106;-73
2021/07/21 05:13:43;;;;;;;9.40;8.32;;;;;;;22.90;52.10;102356.84;4959894;28;20033;-73
2021/07/21 05:16:09;;;;;;;9.90;8.50;;;;;;;22.90;52.14;102354.19;4975734;28;20042;-72
2021/07/21 05:18:37;;;;;;;8.50;7.05;;;;;;;22.87;52.35;102354.19;4975617;28;20031;-74
2021/07/21 05:21:04;;;;;;;11.02;8.10;;;;;;;22.85;52.18;102364.72;4976625;28;20030;-73
2021/07/21 05:23:31;;;;;;;12.75;10.30;;;;;;;22.13;53.99;102368.94;4976412;28;20031;-74
2021/07/21 05:25:57;;;;;;;12.32;9.77;;;;;;;21.38;56.55;102373.75;4977459;28;20037;-74
2021/07/21 05:28:23;;;;;;;14.98;10.43;;;;;;;21.42;56.44;102377.28;4976598;28;20038;-73
2021/07/21 05:30:49;;;;;;;15.40;10.00;;;;;;;21.61;55.78;102384.44;4977177;28;20039;-74
2021/07/21 05:33:14;;;;;;;17.05;10.95;;;;;;;21.66;55.52;102380.09;4977072;28;20077;-73
2021/07/21 05:35:41;;;;;;;13.07;9.80;;;;;;;21.72;55.66;102385.38;4976677;28;20038;-74
2021/07/21 05:38:06;;;;;;;13.38;9.05;;;;;;;21.73;55.80;102384.50;4975319;28;20486;-74
2021/07/21 05:40:31;;;;;;;17.58;10.90;;;;;;;21.63;56.07;102387.06;4975642;28;20042;-74
2021/07/21 05:42:57;;;;;;;13.77;9.18;;;;;;;21.75;55.78;102388.03;4977237;28;20425;-79
2021/07/21 05:45:22;;;;;;;12.45;9.98;;;;;;;21.77;55.63;102393.31;4945730;28;20055;-73
2021/07/21 05:47:48;;;;;;;15.23;10.48;;;;;;;21.72;55.83;102388.00;4978904;28;20062;-74
2021/07/21 05:50:14;;;;;;;14.77;9.97;;;;;;;21.75;55.48;102393.28;4978497;28;20034;-74
2021/07/21 05:52:39;;;;;;;15.88;11.75;;;;;;;21.78;55.64;102396.81;4979826;28;19914;-74
2021/07/21 05:55:06;;;;;;;19.45;13.13;;;;;;;21.88;55.15;102398.63;4979385;28;20094;-73
2021/07/21 05:57:31;;;;;;;17.00;12.65;;;;;;;21.86;55.07;102400.38;4983896;28;20065;-75
2021/07/21 05:59:56;;;;;;;20.25;14.38;;;;;;;21.99;54.67;102396.97;4982947;28;20023;-73
2021/07/21 06:02:22;;;;;;;15.10;11.67;;;;;;;21.88;54.97;102394.25;4981852;28;20023;-74
2021/07/21 06:04:48;;;;;;;18.13;13.95;;;;;;;21.87;55.16;102392.47;4978778;28;19914;-74
2021/07/21 06:07:13;;;;;;;13.00;10.77;;;;;;;21.90;54.89;102394.25;4978769;28;20029;-74
2021/07/21 06:09:39;;;;;;;15.25;11.90;;;;;;;21.92;55.04;102400.41;4979512;28;20058;-74
2021/07/21 06:12:05;;;;;;;16.70;11.95;;;;;;;21.98;54.93;102395.16;4963486;28;20038;-74
2021/07/21 06:14:32;;;;;;;17.50;12.55;;;;;;;22.01;54.76;102403.13;4962876;28;20058;-74
2021/07/21 06:16:57;;;;;;;16.08;11.55;;;;;;;21.94;55.24;102409.22;4979355;28;20025;-74
2021/07/21 06:19:23;;;;;;;16.23;10.70;;;;;;;21.92;55.03;102411.84;4962736;28;20039;-74
2021/07/21 06:21:48;;;;;;;13.00;11.05;;;;;;;21.99;54.81;102407.50;4978266;28;20031;-74
2021/07/21 06:24:13;;;;;;;15.63;11.60;;;;;;;22.02;54.74;102412.78;4978863;28;20113;-74
2021/07/21 06:26:39;;;;;;;13.35;11.13;;;;;;;22.13;54.09;102411.09;4977188;28;20031;-74
2021/07/21 06:29:04;;;;;;;15.10;12.98;;;;;;;22.12;54.49;102413.72;4978272;28;20042;-74
2021/07/21 06:31:30;;;;;;;13.63;11.13;;;;;;;22.09;54.37;102414.56;4976509;28;20034;-74
2021/07/21 06:33:55;;;;;;;19.00;12.30;;;;;;;22.17;54.02;102425.16;4979484;28;20045;-74
2021/07/21 06:36:21;;;;;;;17.52;12.48;;;;;;;22.18;54.09;102424.28;4978379;28;20031;-74
2021/07/21 06:38:46;;;;;;;15.23;11.70;;;;;;;22.18;53.85;102427.81;4976585;28;20133;-74
2021/07/21 06:41:13;;;;;;;18.30;12.48;;;;;;;22.20;53.88;102431.31;4978434;28;20457;-74
2021/07/21 06:43:40;;;;;;;16.45;11.13;;;;;;;22.23;53.64;102431.31;4975362;28;20482;-71
2021/07/21 06:46:05;;;;;;;17.95;11.52;;;;;;;22.24;52.73;102430.47;4958106;28;20536;-71
2021/07/21 06:48:31;;;;;;;12.57;9.70;;;;;;;22.17;52.24;102427.81;4975451;28;20039;-71
2021/07/21 06:50:56;;;;;;;16.58;11.13;;;;;;;22.17;51.62;102433.94;4957968;28;20026;-71
2021/07/21 06:53:22;;;;;;;15.75;10.50;;;;;;;22.25;51.50;102440.13;4974050;28;20085;-72
2021/07/21 06:55:47;;;;;;;14.38;9.50;;;;;;;22.22;51.69;102437.47;4974908;28;20106;-71
2021/07/21 06:58:13;;;;;;;13.20;9.13;;;;;;;22.31;51.57;102434.03;4973478;28;20089;-72
2021/07/21 07:00:38;;;;;;;19.23;9.52;;;;;;;22.38;51.77;102438.44;4973907;28;20069;-73
2021/07/21 07:03:03;;;;;;;12.43;9.45;;;;;;;22.46;51.63;102445.47;4974021;28;20477;-72
2021/07/21 07:05:29;;;;;;;13.10;9.93;;;;;;;22.53;51.53;102448.16;4975228;28;20527;-72
2021/07/21 07:07:54;;;;;;;14.60;11.18;;;;;;;22.37;52.05;102447.19;4974950;28;20034;-72
2021/07/21 07:10:19;;;;;;;14.10;10.23;;;;;;;22.38;52.07;102444.56;4973907;28;20026;-72
2021/07/21 07:12:47;;;;;;;12.57;9.20;;;;;;;22.50;51.08;102448.13;4942071;28;20085;-72
2021/07/21 07:15:13;;;;;;;12.30;8.45;;;;;;;22.56;49.36;102442.91;4974387;28;20367;-72
2021/07/21 07:17:38;;;;;;;12.90;8.82;;;;;;;22.67;49.35;102446.44;4975075;28;20119;-72
2021/07/21 07:20:05;;;;;;;14.10;10.80;;;;;;;22.74;48.92;102454.38;4974591;28;20393;-72
2021/07/21 07:22:31;;;;;;;13.35;8.60;;;;;;;22.71;48.44;102453.50;4975644;28;20054;-72
2021/07/21 07:24:56;;;;;;;12.27;8.95;;;;;;;22.80;48.59;102454.44;4976967;28;20544;-74
2021/07/21 07:27:22;;;;;;;9.98;8.55;;;;;;;22.81;48.01;102460.59;4978232;28;20038;-72
2021/07/21 07:29:47;;;;;;;11.98;7.50;;;;;;;22.87;47.81;102460.59;4977039;28;20045;-72
2021/07/21 07:32:12;;;;;;;11.40;8.40;;;;;;;22.90;47.73;102462.34;4976819;28;20531;-71
2021/07/21 07:34:38;;;;;;;12.73;7.90;;;;;;;22.88;47.68;102461.47;4978429;28;20094;-72
2021/07/21 07:37:04;;;;;;;11.15;8.27;;;;;;;22.96;47.83;102467.66;4944865;28;20085;-72
2021/07/21 07:39:29;;;;;;;9.40;6.97;;;;;;;23.11;47.80;102457.97;4977931;28;20496;-72
2021/07/21 07:41:58;;;;;;;12.02;6.82;;;;;;;23.25;47.75;102458.00;4960695;28;20031;-72
2021/07/21 07:44:24;;;;;;;9.07;7.00;;;;;;;23.32;47.78;102457.16;4960435;28;20090;-72
2021/07/21 07:46:49;;;;;;;12.63;7.03;;;;;;;23.35;47.76;102459.78;4944748;28;20035;-71
2021/07/21 07:49:15;;;;;;;11.07;6.95;;;;;;;23.39;47.61;102465.94;4960724;28;20031;-74
2021/07/21 07:51:40;;;;;;;13.88;7.85;;;;;;;23.49;47.78;102458.03;4960843;28;20436;-72
2021/07/21 07:54:06;;;;;;;11.43;7.55;;;;;;;23.38;47.64;102456.25;4960218;28;20374;-71
2021/07/21 07:56:32;;;;;;;11.88;8.20;;;;;;;23.44;48.04;102449.22;4977460;28;20055;-71
2021/07/21 07:58:58;;;;;;;10.27;7.60;;;;;;;23.35;46.38;102456.28;4977698;28;20038;-72
2021/07/21 08:01:25;;;;;;;11.50;7.40;;;;;;;23.14;46.10;102455.34;4960107;28;20037;-72
2021/07/21 08:03:50;;;;;;;8.90;7.03;;;;;;;23.15;46.58;102454.47;4944225;28;20127;-72
2021/07/21 08:06:16;;;;;;;7.30;6.43;;;;;;;23.18;45.62;102453.59;4944070;28;20406;-71
2021/07/21 08:08:41;;;;;;;10.85;7.30;;;;;;;23.19;45.66;102449.22;4960196;28;20037;-71
2021/07/21 08:11:09;;;;;;;7.53;6.38;;;;;;;23.31;45.67;102454.50;4977361;28;20035;-71
2021/07/21 08:13:34;;;;;;;8.80;6.53;;;;;;;23.37;45.66;102455.38;4944532;28;20096;-71
2021/07/21 08:16:00;;;;;;;10.05;7.07;;;;;;;23.43;45.05;102449.22;4943895;28;20114;-71
2021/07/21 08:18:26;;;;;;;9.27;7.10;;;;;;;23.41;45.24;102445.69;4927967;28;20093;-71
2021/07/21 08:20:51;;;;;;;6.90;5.95;;;;;;;23.43;45.62;102447.47;4959765;28;20081;-72
2021/07/21 08:23:17;;;;;;;8.18;6.53;;;;;;;23.41;44.57;102457.13;4943593;28;20031;-71
2021/07/21 08:25:43;;;;;;;10.27;6.45;;;;;;;23.29;44.89;102456.25;4976943;28;20031;-71
2021/07/21 08:28:09;;;;;;;8.85;6.78;;;;;;;23.32;44.66;102450.97;4976902;28;20034;-72
2021/07/21 08:30:34;;;;;;;8.25;6.30;;;;;;;23.31;44.99;102459.78;4977141;28;20057;-74
2021/07/21 08:33:00;;;;;;;8.30;6.18;;;;;;;23.29;44.76;102457.13;4977064;28;20027;-71
2021/07/21 08:35:29;;;;;;;11.25;6.85;;;;;;;23.35;45.26;102461.56;4977363;28;20149;-71
2021/07/21 08:37:55;;;;;;;10.95;7.15;;;;;;;23.34;44.55;102455.38;4962502;28;20067;-71
2021/07/21 08:40:22;;;;;;;13.90;8.07;;;;;;;23.32;44.70;102456.25;4959967;28;20105;-71
2021/07/21 08:42:48;;;;;;;7.05;6.20;;;;;;;23.27;44.41;102456.25;4975817;28;20031;-75
2021/07/21 08:45:14;;;;;;;9.68;6.88;;;;;;;23.26;44.47;102449.22;4977216;28;20038;-74
2021/07/21 08:47:39;;;;;;;9.07;7.03;;;;;;;23.23;45.00;102453.63;4976913;28;20031;-72
2021/07/21 08:50:06;;;;;;;8.88;7.55;;;;;;;23.26;44.88;102458.88;4943190;28;20046;-71
2021/07/21 08:52:32;;;;;;;8.70;6.30;;;;;;;23.34;44.72;102447.47;4976712;28;20050;-72
2021/07/21 08:55:00;;;;;;;11.75;7.90;;;;;;;23.41;44.88;102456.25;4976611;28;20073;-72
2021/07/21 08:57:29;;;;;;;12.27;7.97;;;;;;;23.45;44.86;102455.38;4975462;28;20023;-72
2021/07/21 08:59:56;;;;;;;8.10;6.72;;;;;;;23.41;44.34;102450.97;4975314;28;20026;-71
2021/07/21 09:02:21;;;;;;;7.78;6.53;;;;;;;23.47;45.40;102451.88;4975367;28;20118;-72
2021/07/21 09:04:47;;;;;;;8.77;7.13;;;;;;;23.52;44.97;102446.59;4976386;28;20054;-71
2021/07/21 09:07:13;;;;;;;11.10;7.53;;;;;;;23.51;43.97;102460.69;4975282;28;20035;-72
2021/07/21 09:09:38;;;;;;;10.05;7.00;;;;;;;23.39;43.39;102466.81;4976476;28;20041;-72
2021/07/21 09:12:07;;;;;;;22.40;7.47;;;;;;;23.29;44.04;102462.41;4976315;28;20030;-72
2021/07/21 09:14:33;;;;;;;9.77;7.70;;;;;;;23.35;44.85;102462.44;4974830;28;20393;-71
2021/07/21 09:17:05;;;;;;;8.50;6.15;;;;;;;23.45;44.22;102463.31;4975034;28;20034;-71
2021/07/21 09:19:36;;;;;;;9.00;6.78;;;;;;;23.55;44.14;102459.81;4976165;28;20042;-71
2021/07/21 09:22:22;;;;;;;10.45;7.95;;;;;;;23.54;44.45;102460.69;4975960;28;20069;-71
2021/07/21 09:25:11;;;;;;;8.65;6.60;;;;;;;23.52;43.90;102462.44;4975875;28;20034;-71
2021/07/21 09:27:37;;;;;;;10.40;7.05;;;;;;;23.44;44.36;102464.19;4974702;28;20366;-71
2021/07/21 09:30:04;;;;;;;8.50;7.40;;;;;;;23.57;44.71;102457.16;4975030;28;20125;-72
2021/07/21 09:32:30;;;;;;;9.93;7.47;;;;;;;23.64;44.52;102464.19;4975809;28;20090;-71
2021/07/21 09:34:55;;;;;;;9.18;7.57;;;;;;;23.61;43.96;102466.88;4974620;28;20031;-73
2021/07/21 09:37:22;;;;;;;12.70;7.93;;;;;;;23.65;44.33;102471.25;4974621;28;20037;-73
2021/07/21 09:39:50;;;;;;;12.85;8.48;;;;;;;23.83;43.27;102469.47;4959938;28;20492;-73
2021/07/21 09:42:26;;;;;;;9.23;7.68;;;;;;;23.84;44.14;102465.06;4978937;28;20078;-72
2021/07/21 09:44:51;;;;;;;;;;;;;;;23.82;44.80;102462.44;4959244;28;20027;-72
2021/07/21 09:47:22;;;;;;;9.32;7.25;;;;;;;23.84;44.22;102460.66;4958889;28;19949;-72
2021/07/21 09:49:49;;;;;;;8.77;7.88;;;;;;;23.80;45.11;102460.66;4958354;28;20035;-71
2021/07/21 09:52:16;;;;;;;12.02;8.80;;;;;;;23.85;43.66;102461.53;4958094;28;20023;-72
2021/07/21 09:54:41;;;;;;;16.92;9.35;;;;;;;23.76;44.04;102458.91;4975648;28;20027;-72
2021/07/21 09:57:15;;;;;;;10.18;8.40;;;;;;;23.78;44.08;102462.41;4958200;28;20382;-71
2021/07/21 09:59:41;;;;;;;11.38;7.93;;;;;;;23.86;43.58;102455.38;4958217;28;20062;-71
2021/07/21 10:02:18;;;;;;;10.20;8.18;;;;;;;23.80;44.82;102443.03;4926196;28;20034;-71
2021/07/21 10:04:46;;;;;;;10.32;8.77;;;;;;;23.70;43.74;102449.25;4942483;28;20031;-71
2021/07/21 10:09:47;;;;;;;29.38;8.25;;;;;;;23.67;44.70;102451.00;4975386;28;20085;-74
2021/07/21 10:12:15;;;;;;;12.38;9.85;;;;;;;23.61;43.78;102454.53;4975712;28;20037;-76
2021/07/21 10:15:03;;;;;;;13.02;8.95;;;;;;;23.51;43.65;102455.41;4958236;28;20046;-77
2021/07/21 10:17:28;;;;;;;9.30;8.23;;;;;;;23.57;44.38;102452.78;4942681;28;20030;-74
2021/07/21 10:19:55;;;;;;;11.40;8.73;;;;;;;23.65;43.69;102456.28;4958040;28;20089;-74
2021/07/21 10:22:20;;;;;;;10.70;8.43;;;;;;;23.68;44.33;102455.41;4957961;28;20039;-75
2021/07/21 10:24:46;;;;;;;12.98;8.77;;;;;;;23.71;43.52;102465.97;4958007;28;20078;-74
2021/07/21 10:27:11;;;;;;;16.95;10.55;;;;;;;23.70;44.72;102461.56;4957771;28;20034;-74
2021/07/21 10:29:37;;;;;;;18.45;10.07;;;;;;;23.70;44.67;102451.00;4925925;28;20037;-74
2021/07/21 10:32:03;;;;;;;9.48;8.45;;;;;;;23.79;44.38;102456.25;4957939;28;20386;-74
2021/07/21 10:34:28;;;;;;;10.30;8.17;;;;;;;23.85;43.66;102456.25;4941975;28;20034;-74
2021/07/21 10:36:54;;;;;;;11.70;9.15;;;;;;;23.85;43.15;102462.44;4957901;28;20035;-74
2021/07/21 10:39:26;;;;;;;9.90;8.15;;;;;;;23.81;43.90;102463.31;4976960;28;20082;-74
2021/07/21 10:41:54;;;;;;;13.23;9.75;;;;;;;23.68;42.75;102453.63;4974965;28;20065;-74
2021/07/21 10:44:20;;;;;;;12.18;9.80;;;;;;;23.65;42.48;102450.09;4957685;28;20108;-75
2021/07/21 10:46:48;;;;;;;11.35;9.35;;;;;;;23.68;42.24;102456.28;4974645;28;20450;-74
2021/07/21 10:49:40;;;;;;;11.75;9.23;;;;;;;23.71;43.12;102458.03;4974763;28;20031;-74
2021/07/21 11:00:18;;;;;;;12.60;10.07;;;;;;;23.57;42.17;102452.78;4978804;28;20042;-75
2021/07/21 11:02:45;;;;;;;10.43;8.15;;;;;;;23.67;42.70;102451.88;4978520;28;20026;-75
2021/07/21 11:05:37;;;;;;;12.00;9.38;;;;;;;23.75;42.52;102451.88;4961280;28;20097;-74
2021/07/21 11:08:15;;;;;;;9.20;8.20;;;;;;;23.76;42.94;102448.31;4961043;28;20397;-74
2021/07/21 11:10:46;;;;;;;12.07;8.43;;;;;;;23.80;42.24;102447.44;4978610;28;20050;-74
2021/07/21 11:13:28;;;;;;;12.43;8.70;;;;;;;23.78;42.94;102447.44;4978497;28;20159;-74
2021/07/21 11:15:56;;;;;;;11.38;8.80;;;;;;;23.72;42.47;102438.66;4961030;28;20121;-73
2021/07/21 11:18:21;;;;;;;13.77;8.95;;;;;;;23.76;42.39;102451.84;4961004;28;20477;-74
2021/07/21 11:21:03;;;;;;;11.80;8.40;;;;;;;23.79;41.71;102449.22;4978286;28;20046;-74
2021/07/21 11:23:47;;;;;;;11.57;8.80;;;;;;;23.81;42.43;102454.50;4960678;28;20277;-74
2021/07/21 11:26:31;;;;;;;9.43;8.30;;;;;;;23.82;42.54;102451.84;4960996;28;20106;-75
2021/07/21 11:28:58;;;;;;;13.05;8.50;;;;;;;23.74;41.93;102445.72;4978153;28;20512;-73
2021/07/21 11:31:56;;;;;;;10.25;8.50;;;;;;;23.75;42.61;102447.47;4978432;28;20033;-74
2021/07/21 11:34:30;;;;;;;11.27;8.97;;;;;;;23.69;41.86;102450.13;4978623;28;20018;-74
2021/07/21 11:37:06;;;;;;;10.40;8.80;;;;;;;23.61;41.25;102441.34;4961069;28;20458;-74
2021/07/21 11:39:42;;;;;;;9.68;7.68;;;;;;;23.62;41.47;102447.50;4974901;28;20054;-74